sensor_id;sensor_type;location;lat;lon;timestamp;P1;durP1;ratioP1;P2;durP2;ratioP2
73084;SDS011;62974;49.460;10.892;2023-01-26T00:00:56;13.82;;;6.25;;
73084;SDS011;62974;49.460;10.892;2023-01-26T00:03:24;13.13;;;4.70;;
73084;SDS011;62974;49.460;10.892;2023-01-26T00:05:54;14.15;;;4.13;;
73084;SDS011;62974;49.460;10.892;2023-01-26T00:08:21;20.05;;;5.55;;
73084;SDS011;62974;49.460;10.892;2023-01-26T00:10:49;15.80;;;5.03;;
73084;SDS011;62974;49.460;10.892;2023-01-26T00:13:17;9.00;;;4.57;;
73084;SDS011;62974;49.460;10.892;2023-01-26T00:15:45;10.02;;;3.92;;
73084;SDS011;62974;49.460;10.892;2023-01-26T00:18:13;13.63;;;5.57;;
73084;SDS011;62974;49.460;10.892;2023-01-26T00:20:41;14.35;;;5.68;;
73084;SDS011;62974;49.460;10.892;2023-01-26T00:23:09;7.90;;;3.95;;
73084;SDS011;62974;49.460;10.892;2023-01-26T00:25:37;17.90;;;4.10;;
73084;SDS011;62974;49.460;10.892;2023-01-26T00:28:06;8.30;;;3.85;;
73084;SDS011;62974;49.460;10.892;2023-01-26T00:30:33;12.25;;;4.63;;
73084;SDS011;62974;49.460;10.892;2023-01-26T00:33:01;7.28;;;3.92;;
73084;SDS011;62974;49.460;10.892;2023-01-26T00:35:28;8.77;;;4.10;;
73084;SDS011;62974;49.460;10.892;2023-01-26T00:37:56;8.23;;;4.15;;
73084;SDS011;62974;49.460;10.892;2023-01-26T00:40:24;9.57;;;3.17;;
73084;SDS011;62974;49.460;10.892;2023-01-26T00:42:52;9.48;;;3.90;;
73084;SDS011;62974;49.460;10.892;2023-01-26T00:45:20;9.65;;;4.82;;
73084;SDS011;62974;49.460;10.892;2023-01-26T00:47:47;13.77;;;5.32;;
73084;SDS011;62974;49.460;10.892;2023-01-26T00:50:15;8.30;;;3.58;;
73084;SDS011;62974;49.460;10.892;2023-01-26T00:52:42;10.98;;;4.40;;
73084;SDS011;62974;49.460;10.892;2023-01-26T00:55:10;10.85;;;4.32;;
73084;SDS011;62974;49.460;10.892;2023-01-26T00:57:39;8.02;;;3.47;;
73084;SDS011;62974;49.460;10.892;2023-01-26T01:00:07;9.00;;;4.35;;
73084;SDS011;62974;49.460;10.892;2023-01-26T01:02:38;4.45;;;2.25;;
73084;SDS011;62974;49.460;10.892;2023-01-26T01:05:06;5.70;;;3.08;;
73084;SDS011;62974;49.460;10.892;2023-01-26T01:07:34;1.73;;;1.58;;
73084;SDS011;62974;49.460;10.892;2023-01-26T01:10:02;11.10;;;3.72;;
73084;SDS011;62974;49.460;10.892;2023-01-26T01:12:30;7.53;;;2.95;;
73084;SDS011;62974;49.460;10.892;2023-01-26T01:14:58;9.90;;;3.45;;
73084;SDS011;62974;49.460;10.892;2023-01-26T01:17:26;4.20;;;2.55;;
73084;SDS011;62974;49.460;10.892;2023-01-26T01:19:54;6.60;;;2.80;;
73084;SDS011;62974;49.460;10.892;2023-01-26T01:22:21;5.88;;;2.75;;
73084;SDS011;62974;49.460;10.892;2023-01-26T01:24:49;5.32;;;2.15;;
73084;SDS011;62974;49.460;10.892;2023-01-26T01:27:16;7.57;;;2.47;;
73084;SDS011;62974;49.460;10.892;2023-01-26T01:29:43;8.80;;;3.50;;
73084;SDS011;62974;49.460;10.892;2023-01-26T01:32:12;6.25;;;2.17;;
73084;SDS011;62974;49.460;10.892;2023-01-26T01:34:40;5.72;;;2.28;;
73084;SDS011;62974;49.460;10.892;2023-01-26T01:37:07;10.23;;;3.38;;
73084;SDS011;62974;49.460;10.892;2023-01-26T01:39:35;8.85;;;2.55;;
73084;SDS011;62974;49.460;10.892;2023-01-26T01:42:02;9.30;;;2.58;;
73084;SDS011;62974;49.460;10.892;2023-01-26T01:44:30;5.68;;;2.50;;
73084;SDS011;62974;49.460;10.892;2023-01-26T01:46:58;7.30;;;2.53;;
73084;SDS011;62974;49.460;10.892;2023-01-26T01:49:31;0.80;;;0.80;;
73084;SDS011;62974;49.460;10.892;2023-01-26T01:52:01;2.03;;;1.73;;
73084;SDS011;62974;49.460;10.892;2023-01-26T01:54:33;8.65;;;4.20;;
73084;SDS011;62974;49.460;10.892;2023-01-26T01:57:09;5.82;;;3.65;;
73084;SDS011;62974;49.460;10.892;2023-01-26T01:59:43;7.20;;;2.78;;
73084;SDS011;62974;49.460;10.892;2023-01-26T02:02:15;3.08;;;2.45;;
73084;SDS011;62974;49.460;10.892;2023-01-26T02:04:44;10.93;;;3.03;;
73084;SDS011;62974;49.460;10.892;2023-01-26T02:07:12;12.43;;;4.30;;
73084;SDS011;62974;49.460;10.892;2023-01-26T02:09:41;11.45;;;4.53;;
73084;SDS011;62974;49.460;10.892;2023-01-26T02:12:28;13.00;;;3.15;;
73084;SDS011;62974;49.460;10.892;2023-01-26T02:14:58;14.95;;;3.97;;
73084;SDS011;62974;49.460;10.892;2023-01-26T02:17:27;12.38;;;4.30;;
73084;SDS011;62974;49.460;10.892;2023-01-26T02:19:59;9.10;;;3.40;;
73084;SDS011;62974;49.460;10.892;2023-01-26T02:22:34;10.30;;;4.13;;
73084;SDS011;62974;49.460;10.892;2023-01-26T02:25:11;6.93;;;2.40;;
73084;SDS011;62974;49.460;10.892;2023-01-26T02:27:53;11.88;;;3.60;;
73084;SDS011;62974;49.460;10.892;2023-01-26T02:30:20;3.10;;;1.52;;
73084;SDS011;62974;49.460;10.892;2023-01-26T02:32:49;11.77;;;3.88;;
73084;SDS011;62974;49.460;10.892;2023-01-26T02:35:16;9.80;;;3.45;;
73084;SDS011;62974;49.460;10.892;2023-01-26T02:37:44;7.28;;;3.28;;
73084;SDS011;62974;49.460;10.892;2023-01-26T02:40:12;6.38;;;3.38;;
73084;SDS011;62974;49.460;10.892;2023-01-26T02:42:48;8.98;;;4.65;;
73084;SDS011;62974;49.460;10.892;2023-01-26T02:45:16;11.07;;;2.13;;
73084;SDS011;62974;49.460;10.892;2023-01-26T02:47:43;9.25;;;3.45;;
73084;SDS011;62974;49.460;10.892;2023-01-26T02:50:12;4.45;;;2.67;;
73084;SDS011;62974;49.460;10.892;2023-01-26T02:52:39;10.20;;;3.45;;
73084;SDS011;62974;49.460;10.892;2023-01-26T02:55:07;10.13;;;3.55;;
73084;SDS011;62974;49.460;10.892;2023-01-26T02:57:51;15.98;;;3.90;;
73084;SDS011;62974;49.460;10.892;2023-01-26T03:00:21;9.07;;;3.20;;
73084;SDS011;62974;49.460;10.892;2023-01-26T03:02:50;9.02;;;3.63;;
73084;SDS011;62974;49.460;10.892;2023-01-26T03:05:19;8.65;;;3.90;;
73084;SDS011;62974;49.460;10.892;2023-01-26T03:07:47;9.15;;;4.18;;
73084;SDS011;62974;49.460;10.892;2023-01-26T03:10:15;12.18;;;4.43;;
73084;SDS011;62974;49.460;10.892;2023-01-26T03:12:43;8.85;;;2.67;;
73084;SDS011;62974;49.460;10.892;2023-01-26T03:15:10;14.00;;;3.65;;
73084;SDS011;62974;49.460;10.892;2023-01-26T03:18:04;10.88;;;4.28;;
73084;SDS011;62974;49.460;10.892;2023-01-26T03:20:51;11.88;;;4.30;;
73084;SDS011;62974;49.460;10.892;2023-01-26T03:23:36;7.70;;;3.08;;
73084;SDS011;62974;49.460;10.892;2023-01-26T03:26:21;8.25;;;4.72;;
73084;SDS011;62974;49.460;10.892;2023-01-26T03:29:07;8.10;;;3.33;;
73084;SDS011;62974;49.460;10.892;2023-01-26T03:31:34;9.50;;;3.67;;
73084;SDS011;62974;49.460;10.892;2023-01-26T03:34:03;8.57;;;3.65;;
73084;SDS011;62974;49.460;10.892;2023-01-26T03:36:31;5.55;;;2.72;;
73084;SDS011;62974;49.460;10.892;2023-01-26T03:38:58;8.75;;;3.17;;
73084;SDS011;62974;49.460;10.892;2023-01-26T03:41:26;7.35;;;3.33;;
73084;SDS011;62974;49.460;10.892;2023-01-26T03:44:12;4.82;;;1.67;;
73084;SDS011;62974;49.460;10.892;2023-01-26T03:46:57;5.28;;;3.13;;
73084;SDS011;62974;49.460;10.892;2023-01-26T03:49:43;6.30;;;0.32;;
73084;SDS011;62974;49.460;10.892;2023-01-26T03:52:30;2.97;;;1.63;;
73084;SDS011;62974;49.460;10.892;2023-01-26T03:55:15;3.70;;;1.33;;
73084;SDS011;62974;49.460;10.892;2023-01-26T03:58:00;4.30;;;2.05;;
73084;SDS011;62974;49.460;10.892;2023-01-26T04:00:28;5.63;;;3.00;;
73084;SDS011;62974;49.460;10.892;2023-01-26T04:02:55;6.55;;;2.90;;
73084;SDS011;62974;49.460;10.892;2023-01-26T04:05:42;8.43;;;3.95;;
73084;SDS011;62974;49.460;10.892;2023-01-26T04:08:41;2.60;;;1.60;;
73084;SDS011;62974;49.460;10.892;2023-01-26T04:11:09;5.60;;;2.78;;
73084;SDS011;62974;49.460;10.892;2023-01-26T04:13:36;6.75;;;2.47;;
73084;SDS011;62974;49.460;10.892;2023-01-26T04:16:21;5.20;;;2.70;;
73084;SDS011;62974;49.460;10.892;2023-01-26T04:19:07;5.68;;;2.20;;
73084;SDS011;62974;49.460;10.892;2023-01-26T04:21:53;4.55;;;2.17;;
73084;SDS011;62974;49.460;10.892;2023-01-26T04:24:21;6.78;;;2.25;;
73084;SDS011;62974;49.460;10.892;2023-01-26T04:26:49;8.77;;;3.60;;
73084;SDS011;62974;49.460;10.892;2023-01-26T04:29:17;5.95;;;2.60;;
73084;SDS011;62974;49.460;10.892;2023-01-26T04:31:44;6.55;;;3.10;;
73084;SDS011;62974;49.460;10.892;2023-01-26T04:34:12;6.93;;;2.33;;
73084;SDS011;62974;49.460;10.892;2023-01-26T04:36:41;3.28;;;1.98;;
73084;SDS011;62974;49.460;10.892;2023-01-26T04:39:10;7.05;;;2.22;;
73084;SDS011;62974;49.460;10.892;2023-01-26T04:41:38;9.90;;;3.40;;
73084;SDS011;62974;49.460;10.892;2023-01-26T04:44:07;11.20;;;3.63;;
73084;SDS011;62974;49.460;10.892;2023-01-26T04:46:35;7.97;;;3.47;;
73084;SDS011;62974;49.460;10.892;2023-01-26T04:49:02;5.90;;;2.92;;
73084;SDS011;62974;49.460;10.892;2023-01-26T04:51:30;12.68;;;3.45;;
73084;SDS011;62974;49.460;10.892;2023-01-26T04:53:58;6.05;;;2.38;;
73084;SDS011;62974;49.460;10.892;2023-01-26T04:56:27;6.78;;;3.08;;
73084;SDS011;62974;49.460;10.892;2023-01-26T04:58:57;0.35;;;0.35;;
73084;SDS011;62974;49.460;10.892;2023-01-26T05:03:53;1.90;;;1.17;;
73084;SDS011;62974;49.460;10.892;2023-01-26T05:06:21;4.72;;;1.65;;
73084;SDS011;62974;49.460;10.892;2023-01-26T05:08:48;4.40;;;1.90;;
73084;SDS011;62974;49.460;10.892;2023-01-26T05:11:16;3.90;;;2.55;;
73084;SDS011;62974;49.460;10.892;2023-01-26T05:13:44;7.28;;;2.28;;
73084;SDS011;62974;49.460;10.892;2023-01-26T05:16:12;3.78;;;2.13;;
73084;SDS011;62974;49.460;10.892;2023-01-26T05:18:40;7.35;;;2.80;;
73084;SDS011;62974;49.460;10.892;2023-01-26T05:21:09;7.40;;;2.20;;
73084;SDS011;62974;49.460;10.892;2023-01-26T05:23:37;7.03;;;2.45;;
73084;SDS011;62974;49.460;10.892;2023-01-26T05:26:05;7.30;;;3.17;;
73084;SDS011;62974;49.460;10.892;2023-01-26T05:28:33;3.33;;;1.25;;
73084;SDS011;62974;49.460;10.892;2023-01-26T05:31:03;6.68;;;3.17;;
73084;SDS011;62974;49.460;10.892;2023-01-26T05:33:31;5.25;;;2.25;;
73084;SDS011;62974;49.460;10.892;2023-01-26T05:36:01;4.65;;;1.70;;
73084;SDS011;62974;49.460;10.892;2023-01-26T05:38:30;8.13;;;2.58;;
73084;SDS011;62974;49.460;10.892;2023-01-26T05:40:58;5.25;;;2.40;;
73084;SDS011;62974;49.460;10.892;2023-01-26T05:43:26;5.07;;;1.60;;
73084;SDS011;62974;49.460;10.892;2023-01-26T05:45:53;9.68;;;2.80;;
73084;SDS011;62974;49.460;10.892;2023-01-26T05:48:22;7.25;;;2.97;;
73084;SDS011;62974;49.460;10.892;2023-01-26T05:50:50;7.40;;;3.17;;
73084;SDS011;62974;49.460;10.892;2023-01-26T05:53:17;7.88;;;3.22;;
73084;SDS011;62974;49.460;10.892;2023-01-26T05:55:45;3.70;;;1.45;;
73084;SDS011;62974;49.460;10.892;2023-01-26T05:58:13;3.17;;;2.28;;
73084;SDS011;62974;49.460;10.892;2023-01-26T06:00:41;6.57;;;3.13;;
73084;SDS011;62974;49.460;10.892;2023-01-26T06:03:08;3.78;;;2.22;;
73084;SDS011;62974;49.460;10.892;2023-01-26T06:05:37;5.25;;;3.00;;
73084;SDS011;62974;49.460;10.892;2023-01-26T06:08:05;5.85;;;1.65;;
73084;SDS011;62974;49.460;10.892;2023-01-26T06:10:32;5.63;;;2.45;;
73084;SDS011;62974;49.460;10.892;2023-01-26T06:12:59;9.20;;;2.95;;
73084;SDS011;62974;49.460;10.892;2023-01-26T06:15:27;8.68;;;2.47;;
73084;SDS011;62974;49.460;10.892;2023-01-26T06:17:54;6.03;;;2.38;;
73084;SDS011;62974;49.460;10.892;2023-01-26T06:20:22;5.47;;;2.58;;
73084;SDS011;62974;49.460;10.892;2023-01-26T06:22:51;4.85;;;2.42;;
73084;SDS011;62974;49.460;10.892;2023-01-26T06:25:18;3.45;;;1.77;;
73084;SDS011;62974;49.460;10.892;2023-01-26T06:27:45;4.25;;;2.35;;
73084;SDS011;62974;49.460;10.892;2023-01-26T06:30:13;4.40;;;2.53;;
73084;SDS011;62974;49.460;10.892;2023-01-26T06:32:41;10.65;;;3.95;;
73084;SDS011;62974;49.460;10.892;2023-01-26T06:35:08;7.28;;;2.25;;
73084;SDS011;62974;49.460;10.892;2023-01-26T06:37:36;4.60;;;2.42;;
73084;SDS011;62974;49.460;10.892;2023-01-26T06:40:05;3.88;;;1.80;;
73084;SDS011;62974;49.460;10.892;2023-01-26T06:42:33;5.20;;;1.65;;
73084;SDS011;62974;49.460;10.892;2023-01-26T06:45:01;4.65;;;2.05;;
73084;SDS011;62974;49.460;10.892;2023-01-26T06:47:29;6.95;;;2.45;;
73084;SDS011;62974;49.460;10.892;2023-01-26T06:49:56;7.97;;;1.90;;
73084;SDS011;62974;49.460;10.892;2023-01-26T06:52:25;7.03;;;2.72;;
73084;SDS011;62974;49.460;10.892;2023-01-26T06:54:54;6.35;;;1.98;;
73084;SDS011;62974;49.460;10.892;2023-01-26T06:57:25;5.88;;;2.45;;
73084;SDS011;62974;49.460;10.892;2023-01-26T06:59:52;5.80;;;2.53;;
73084;SDS011;62974;49.460;10.892;2023-01-26T07:02:22;8.30;;;2.85;;
73084;SDS011;62974;49.460;10.892;2023-01-26T07:04:49;3.70;;;2.35;;
73084;SDS011;62974;49.460;10.892;2023-01-26T07:07:17;3.58;;;2.00;;
73084;SDS011;62974;49.460;10.892;2023-01-26T07:09:44;7.45;;;3.50;;
73084;SDS011;62974;49.460;10.892;2023-01-26T07:12:12;9.63;;;3.97;;
73084;SDS011;62974;49.460;10.892;2023-01-26T07:14:41;8.65;;;4.25;;
73084;SDS011;62974;49.460;10.892;2023-01-26T07:17:08;8.68;;;3.25;;
73084;SDS011;62974;49.460;10.892;2023-01-26T07:19:36;7.70;;;3.25;;
73084;SDS011;62974;49.460;10.892;2023-01-26T07:22:03;6.65;;;2.80;;
73084;SDS011;62974;49.460;10.892;2023-01-26T07:24:31;3.97;;;1.58;;
73084;SDS011;62974;49.460;10.892;2023-01-26T07:26:58;4.18;;;2.30;;
73084;SDS011;62974;49.460;10.892;2023-01-26T07:29:27;10.23;;;3.22;;
73084;SDS011;62974;49.460;10.892;2023-01-26T07:31:56;6.15;;;1.83;;
73084;SDS011;62974;49.460;10.892;2023-01-26T07:34:23;5.68;;;2.55;;
73084;SDS011;62974;49.460;10.892;2023-01-26T07:36:51;6.95;;;1.77;;
73084;SDS011;62974;49.460;10.892;2023-01-26T07:39:18;3.53;;;2.25;;
73084;SDS011;62974;49.460;10.892;2023-01-26T07:41:46;5.35;;;1.63;;
73084;SDS011;62974;49.460;10.892;2023-01-26T07:46:42;4.05;;;1.52;;
73084;SDS011;62974;49.460;10.892;2023-01-26T07:49:12;4.10;;;1.85;;
73084;SDS011;62974;49.460;10.892;2023-01-26T07:51:39;6.97;;;0.90;;
73084;SDS011;62974;49.460;10.892;2023-01-26T07:54:08;5.70;;;2.88;;
73084;SDS011;62974;49.460;10.892;2023-01-26T07:56:38;5.55;;;2.45;;
73084;SDS011;62974;49.460;10.892;2023-01-26T07:59:05;5.93;;;2.22;;
73084;SDS011;62974;49.460;10.892;2023-01-26T08:01:33;7.60;;;2.90;;
73084;SDS011;62974;49.460;10.892;2023-01-26T08:04:00;10.13;;;3.13;;
73084;SDS011;62974;49.460;10.892;2023-01-26T08:06:29;5.75;;;2.42;;
73084;SDS011;62974;49.460;10.892;2023-01-26T08:08:56;12.27;;;4.22;;
73084;SDS011;62974;49.460;10.892;2023-01-26T08:11:24;14.02;;;4.90;;
73084;SDS011;62974;49.460;10.892;2023-01-26T08:13:52;7.32;;;2.78;;
73084;SDS011;62974;49.460;10.892;2023-01-26T08:16:19;8.80;;;3.45;;
73084;SDS011;62974;49.460;10.892;2023-01-26T08:18:47;6.60;;;3.45;;
73084;SDS011;62974;49.460;10.892;2023-01-26T08:21:15;8.90;;;3.47;;
73084;SDS011;62974;49.460;10.892;2023-01-26T08:23:48;10.10;;;4.05;;
73084;SDS011;62974;49.460;10.892;2023-01-26T08:26:16;12.05;;;3.78;;
73084;SDS011;62974;49.460;10.892;2023-01-26T08:28:45;14.82;;;4.70;;
73084;SDS011;62974;49.460;10.892;2023-01-26T08:31:13;11.48;;;3.88;;
73084;SDS011;62974;49.460;10.892;2023-01-26T08:33:44;8.15;;;4.05;;
73084;SDS011;62974;49.460;10.892;2023-01-26T08:36:13;6.70;;;2.50;;
73084;SDS011;62974;49.460;10.892;2023-01-26T08:38:41;8.40;;;2.63;;
73084;SDS011;62974;49.460;10.892;2023-01-26T08:41:11;8.15;;;4.03;;
73084;SDS011;62974;49.460;10.892;2023-01-26T08:43:39;11.82;;;3.78;;
73084;SDS011;62974;49.460;10.892;2023-01-26T08:46:06;10.25;;;3.92;;
73084;SDS011;62974;49.460;10.892;2023-01-26T08:48:34;5.93;;;2.90;;
73084;SDS011;62974;49.460;10.892;2023-01-26T08:51:02;8.38;;;3.10;;
73084;SDS011;62974;49.460;10.892;2023-01-26T08:53:32;6.30;;;3.10;;
73084;SDS011;62974;49.460;10.892;2023-01-26T08:56:02;17.48;;;5.72;;
73084;SDS011;62974;49.460;10.892;2023-01-26T08:58:32;4.60;;;2.58;;
73084;SDS011;62974;49.460;10.892;2023-01-26T09:01:02;7.20;;;3.47;;
73084;SDS011;62974;49.460;10.892;2023-01-26T09:03:30;8.68;;;2.60;;
73084;SDS011;62974;49.460;10.892;2023-01-26T09:05:58;5.57;;;1.58;;
73084;SDS011;62974;49.460;10.892;2023-01-26T09:08:26;6.50;;;3.15;;
73084;SDS011;62974;49.460;10.892;2023-01-26T09:10:54;11.48;;;1.90;;
73084;SDS011;62974;49.460;10.892;2023-01-26T09:13:22;11.02;;;3.53;;
73084;SDS011;62974;49.460;10.892;2023-01-26T09:18:19;9.60;;;3.58;;
73084;SDS011;62974;49.460;10.892;2023-01-26T09:20:46;11.45;;;4.80;;
73084;SDS011;62974;49.460;10.892;2023-01-26T09:23:14;3.05;;;1.48;;
73084;SDS011;62974;49.460;10.892;2023-01-26T09:25:43;12.65;;;4.88;;
73084;SDS011;62974;49.460;10.892;2023-01-26T09:28:10;8.20;;;3.42;;
73084;SDS011;62974;49.460;10.892;2023-01-26T09:30:38;9.30;;;2.88;;
73084;SDS011;62974;49.460;10.892;2023-01-26T09:33:05;11.50;;;3.65;;
73084;SDS011;62974;49.460;10.892;2023-01-26T09:35:34;10.70;;;3.40;;
73084;SDS011;62974;49.460;10.892;2023-01-26T09:38:02;5.50;;;1.92;;
73084;SDS011;62974;49.460;10.892;2023-01-26T09:40:32;7.30;;;3.30;;
73084;SDS011;62974;49.460;10.892;2023-01-26T09:43:11;8.25;;;2.40;;
73084;SDS011;62974;49.460;10.892;2023-01-26T09:45:50;6.95;;;3.13;;
73084;SDS011;62974;49.460;10.892;2023-01-26T09:48:26;14.65;;;5.18;;
73084;SDS011;62974;49.460;10.892;2023-01-26T09:51:03;8.60;;;3.92;;
73084;SDS011;62974;49.460;10.892;2023-01-26T09:53:39;5.53;;;2.72;;
73084;SDS011;62974;49.460;10.892;2023-01-26T09:56:13;9.18;;;3.13;;
73084;SDS011;62974;49.460;10.892;2023-01-26T09:58:43;7.55;;;2.90;;
73084;SDS011;62974;49.460;10.892;2023-01-26T10:01:17;3.28;;;1.52;;
73084;SDS011;62974;49.460;10.892;2023-01-26T10:03:53;13.13;;;5.00;;
73084;SDS011;62974;49.460;10.892;2023-01-26T10:06:29;8.90;;;4.20;;
73084;SDS011;62974;49.460;10.892;2023-01-26T10:08:59;7.72;;;3.88;;
73084;SDS011;62974;49.460;10.892;2023-01-26T10:11:28;7.32;;;2.42;;
73084;SDS011;62974;49.460;10.892;2023-01-26T10:14:02;9.75;;;3.42;;
73084;SDS011;62974;49.460;10.892;2023-01-26T10:16:34;9.45;;;3.45;;
73084;SDS011;62974;49.460;10.892;2023-01-26T10:19:02;7.15;;;3.08;;
73084;SDS011;62974;49.460;10.892;2023-01-26T10:21:37;6.72;;;2.15;;
73084;SDS011;62974;49.460;10.892;2023-01-26T10:24:09;8.73;;;2.78;;
73084;SDS011;62974;49.460;10.892;2023-01-26T10:26:40;11.63;;;3.85;;
73084;SDS011;62974;49.460;10.892;2023-01-26T10:29:10;13.63;;;4.57;;
73084;SDS011;62974;49.460;10.892;2023-01-26T10:31:41;11.43;;;4.03;;
73084;SDS011;62974;49.460;10.892;2023-01-26T10:34:12;4.93;;;2.80;;
73084;SDS011;62974;49.460;10.892;2023-01-26T10:36:44;8.82;;;3.42;;
73084;SDS011;62974;49.460;10.892;2023-01-26T10:39:13;8.73;;;3.28;;
73084;SDS011;62974;49.460;10.892;2023-01-26T10:44:30;3.95;;;1.63;;
73084;SDS011;62974;49.460;10.892;2023-01-26T10:47:01;5.18;;;2.40;;
73084;SDS011;62974;49.460;10.892;2023-01-26T10:49:31;14.27;;;4.50;;
73084;SDS011;62974;49.460;10.892;2023-01-26T10:52:10;14.00;;;5.13;;
73084;SDS011;62974;49.460;10.892;2023-01-26T10:54:42;9.10;;;2.67;;
73084;SDS011;62974;49.460;10.892;2023-01-26T10:57:13;9.80;;;3.90;;
73084;SDS011;62974;49.460;10.892;2023-01-26T10:59:48;10.27;;;3.60;;
73084;SDS011;62974;49.460;10.892;2023-01-26T11:02:20;13.55;;;4.70;;
73084;SDS011;62974;49.460;10.892;2023-01-26T11:07:43;11.85;;;4.30;;
73084;SDS011;62974;49.460;10.892;2023-01-26T11:10:16;4.03;;;1.33;;
73084;SDS011;62974;49.460;10.892;2023-01-26T11:15:15;15.75;;;3.95;;
73084;SDS011;62974;49.460;10.892;2023-01-26T11:17:47;3.15;;;1.90;;
73084;SDS011;62974;49.460;10.892;2023-01-26T11:20:34;12.05;;;1.98;;
73084;SDS011;62974;49.460;10.892;2023-01-26T11:23:13;8.88;;;3.25;;
73084;SDS011;62974;49.460;10.892;2023-01-26T11:25:53;8.35;;;2.58;;
73084;SDS011;62974;49.460;10.892;2023-01-26T11:28:37;11.32;;;3.80;;
73084;SDS011;62974;49.460;10.892;2023-01-26T11:31:20;14.75;;;4.93;;
73084;SDS011;62974;49.460;10.892;2023-01-26T11:34:03;36.90;;;11.85;;
73084;SDS011;62974;49.460;10.892;2023-01-26T11:36:44;173.95;;;42.33;;
73084;SDS011;62974;49.460;10.892;2023-01-26T11:39:21;89.25;;;27.13;;
73084;SDS011;62974;49.460;10.892;2023-01-26T11:41:59;19.95;;;8.32;;
73084;SDS011;62974;49.460;10.892;2023-01-26T11:44:40;17.17;;;5.45;;
73084;SDS011;62974;49.460;10.892;2023-01-26T11:47:31;4.93;;;2.63;;
73084;SDS011;62974;49.460;10.892;2023-01-26T11:50:16;24.23;;;7.78;;
73084;SDS011;62974;49.460;10.892;2023-01-26T11:52:54;31.05;;;9.43;;
73084;SDS011;62974;49.460;10.892;2023-01-26T11:55:41;50.53;;;12.45;;
73084;SDS011;62974;49.460;10.892;2023-01-26T11:58:23;35.85;;;9.23;;
73084;SDS011;62974;49.460;10.892;2023-01-26T12:00:57;71.63;;;17.98;;
73084;SDS011;62974;49.460;10.892;2023-01-26T12:03:29;52.15;;;14.82;;
73084;SDS011;62974;49.460;10.892;2023-01-26T12:06:03;48.88;;;13.10;;
73084;SDS011;62974;49.460;10.892;2023-01-26T12:08:34;43.75;;;11.75;;
73084;SDS011;62974;49.460;10.892;2023-01-26T12:11:08;34.10;;;11.10;;
73084;SDS011;62974;49.460;10.892;2023-01-26T12:16:50;13.98;;;6.28;;
73084;SDS011;62974;49.460;10.892;2023-01-26T12:19:44;22.48;;;7.85;;
73084;SDS011;62974;49.460;10.892;2023-01-26T12:22:18;14.63;;;2.58;;
73084;SDS011;62974;49.460;10.892;2023-01-26T12:24:51;17.35;;;4.50;;
73084;SDS011;62974;49.460;10.892;2023-01-26T12:27:45;27.95;;;9.57;;
73084;SDS011;62974;49.460;10.892;2023-01-26T12:30:22;21.48;;;7.80;;
73084;SDS011;62974;49.460;10.892;2023-01-26T12:32:55;11.52;;;4.53;;
73084;SDS011;62974;49.460;10.892;2023-01-26T12:35:26;22.83;;;5.93;;
73084;SDS011;62974;49.460;10.892;2023-01-26T12:38:04;12.48;;;3.55;;
73084;SDS011;62974;49.460;10.892;2023-01-26T12:40:45;9.77;;;2.80;;
73084;SDS011;62974;49.460;10.892;2023-01-26T12:43:35;3.83;;;1.80;;
73084;SDS011;62974;49.460;10.892;2023-01-26T12:46:09;7.38;;;2.80;;
73084;SDS011;62974;49.460;10.892;2023-01-26T12:48:39;10.88;;;3.45;;
73084;SDS011;62974;49.460;10.892;2023-01-26T12:51:13;17.63;;;6.55;;
73084;SDS011;62974;49.460;10.892;2023-01-26T12:53:48;10.52;;;4.15;;
73084;SDS011;62974;49.460;10.892;2023-01-26T12:56:23;13.93;;;4.97;;
73084;SDS011;62974;49.460;10.892;2023-01-26T12:58:56;18.38;;;5.78;;
73084;SDS011;62974;49.460;10.892;2023-01-26T13:01:26;19.50;;;6.75;;
73084;SDS011;62974;49.460;10.892;2023-01-26T13:04:05;14.10;;;5.55;;
73084;SDS011;62974;49.460;10.892;2023-01-26T13:06:35;15.32;;;4.95;;
73084;SDS011;62974;49.460;10.892;2023-01-26T13:09:10;14.85;;;5.65;;
73084;SDS011;62974;49.460;10.892;2023-01-26T13:11:47;10.75;;;4.22;;
73084;SDS011;62974;49.460;10.892;2023-01-26T13:14:28;10.43;;;3.95;;
73084;SDS011;62974;49.460;10.892;2023-01-26T13:20:13;10.50;;;4.55;;
73084;SDS011;62974;49.460;10.892;2023-01-26T13:22:48;8.85;;;5.05;;
73084;SDS011;62974;49.460;10.892;2023-01-26T13:25:16;16.45;;;5.35;;
73084;SDS011;62974;49.460;10.892;2023-01-26T13:30:31;11.02;;;4.65;;
73084;SDS011;62974;49.460;10.892;2023-01-26T13:33:08;12.52;;;3.38;;
73084;SDS011;62974;49.460;10.892;2023-01-26T13:35:39;12.23;;;5.00;;
73084;SDS011;62974;49.460;10.892;2023-01-26T13:38:14;23.23;;;7.88;;
73084;SDS011;62974;49.460;10.892;2023-01-26T13:40:46;19.02;;;7.18;;
73084;SDS011;62974;49.460;10.892;2023-01-26T13:43:17;9.20;;;3.45;;
73084;SDS011;62974;49.460;10.892;2023-01-26T13:45:59;14.27;;;5.32;;
73084;SDS011;62974;49.460;10.892;2023-01-26T13:48:41;17.27;;;6.10;;
73084;SDS011;62974;49.460;10.892;2023-01-26T13:51:12;17.30;;;5.85;;
73084;SDS011;62974;49.460;10.892;2023-01-26T13:53:43;13.23;;;6.13;;
73084;SDS011;62974;49.460;10.892;2023-01-26T13:56:19;17.33;;;5.72;;
73084;SDS011;62974;49.460;10.892;2023-01-26T13:58:48;6.97;;;2.40;;
73084;SDS011;62974;49.460;10.892;2023-01-26T14:01:17;14.27;;;5.07;;
73084;SDS011;62974;49.460;10.892;2023-01-26T14:03:45;11.88;;;5.32;;
73084;SDS011;62974;49.460;10.892;2023-01-26T14:06:13;5.90;;;2.78;;
73084;SDS011;62974;49.460;10.892;2023-01-26T14:08:45;24.33;;;9.30;;
73084;SDS011;62974;49.460;10.892;2023-01-26T14:11:18;9.88;;;3.22;;
73084;SDS011;62974;49.460;10.892;2023-01-26T14:13:49;18.70;;;4.97;;
73084;SDS011;62974;49.460;10.892;2023-01-26T14:16:25;20.40;;;7.60;;
73084;SDS011;62974;49.460;10.892;2023-01-26T14:19:02;9.13;;;4.30;;
73084;SDS011;62974;49.460;10.892;2023-01-26T14:21:32;9.68;;;4.32;;
73084;SDS011;62974;49.460;10.892;2023-01-26T14:24:11;9.30;;;4.78;;
73084;SDS011;62974;49.460;10.892;2023-01-26T14:26:39;18.10;;;5.78;;
73084;SDS011;62974;49.460;10.892;2023-01-26T14:29:10;20.85;;;8.05;;
73084;SDS011;62974;49.460;10.892;2023-01-26T14:31:41;14.23;;;5.43;;
73084;SDS011;62974;49.460;10.892;2023-01-26T14:34:09;18.88;;;6.93;;
73084;SDS011;62974;49.460;10.892;2023-01-26T14:36:37;17.02;;;7.22;;
73084;SDS011;62974;49.460;10.892;2023-01-26T14:39:10;23.80;;;7.75;;
73084;SDS011;62974;49.460;10.892;2023-01-26T14:41:42;14.68;;;4.65;;
73084;SDS011;62974;49.460;10.892;2023-01-26T14:44:11;20.73;;;8.35;;
73084;SDS011;62974;49.460;10.892;2023-01-26T14:46:44;17.83;;;7.40;;
73084;SDS011;62974;49.460;10.892;2023-01-26T14:49:18;16.13;;;6.18;;
73084;SDS011;62974;49.460;10.892;2023-01-26T14:51:52;13.07;;;4.43;;
73084;SDS011;62974;49.460;10.892;2023-01-26T14:54:24;17.42;;;5.65;;
73084;SDS011;62974;49.460;10.892;2023-01-26T14:56:55;9.75;;;4.18;;
73084;SDS011;62974;49.460;10.892;2023-01-26T14:59:27;15.75;;;6.35;;
73084;SDS011;62974;49.460;10.892;2023-01-26T15:02:12;10.82;;;5.63;;
73084;SDS011;62974;49.460;10.892;2023-01-26T15:04:43;13.70;;;5.65;;
73084;SDS011;62974;49.460;10.892;2023-01-26T15:07:21;14.30;;;5.03;;
73084;SDS011;62974;49.460;10.892;2023-01-26T15:09:59;15.13;;;5.07;;
73084;SDS011;62974;49.460;10.892;2023-01-26T15:12:31;18.15;;;7.05;;
73084;SDS011;62974;49.460;10.892;2023-01-26T15:15:00;10.20;;;4.03;;
73084;SDS011;62974;49.460;10.892;2023-01-26T15:17:30;15.40;;;6.68;;